sensor_id;sensor_type;location;lat;lon;timestamp;P1;durP1;ratioP1;P2;durP2;ratioP2
60076;SDS011;45950;45.208;20.374;2023-09-30T00:01:54;17.30;;;11.95;;
60076;SDS011;45950;45.208;20.374;2023-09-30T00:04:20;18.58;;;11.68;;
60076;SDS011;45950;45.208;20.374;2023-09-30T00:06:47;21.73;;;12.63;;
60076;SDS011;45950;45.208;20.374;2023-09-30T00:09:13;20.45;;;15.63;;
60076;SDS011;45950;45.208;20.374;2023-09-30T00:11:40;20.65;;;13.30;;
60076;SDS011;45950;45.208;20.374;2023-09-30T00:14:08;18.45;;;12.52;;
60076;SDS011;45950;45.208;20.374;2023-09-30T00:16:34;19.65;;;14.73;;
60076;SDS011;45950;45.208;20.374;2023-09-30T00:19:01;21.38;;;16.35;;
60076;SDS011;45950;45.208;20.374;2023-09-30T00:21:28;18.20;;;14.48;;
60076;SDS011;45950;45.208;20.374;2023-09-30T00:23:55;15.63;;;12.65;;
60076;SDS011;45950;45.208;20.374;2023-09-30T00:26:21;13.10;;;10.07;;
60076;SDS011;45950;45.208;20.374;2023-09-30T00:28:48;13.80;;;9.77;;
60076;SDS011;45950;45.208;20.374;2023-09-30T00:31:16;16.95;;;10.63;;
60076;SDS011;45950;45.208;20.374;2023-09-30T00:33:43;19.75;;;9.98;;
60076;SDS011;45950;45.208;20.374;2023-09-30T00:36:10;18.73;;;10.07;;
60076;SDS011;45950;45.208;20.374;2023-09-30T00:38:37;14.35;;;10.32;;
60076;SDS011;45950;45.208;20.374;2023-09-30T00:41:03;16.52;;;11.27;;
60076;SDS011;45950;45.208;20.374;2023-09-30T00:43:30;18.95;;;11.63;;
60076;SDS011;45950;45.208;20.374;2023-09-30T00:46:01;19.48;;;11.88;;
60076;SDS011;45950;45.208;20.374;2023-09-30T00:48:29;15.68;;;10.73;;
60076;SDS011;45950;45.208;20.374;2023-09-30T00:50:56;17.48;;;11.80;;
60076;SDS011;45950;45.208;20.374;2023-09-30T00:53:23;18.70;;;12.48;;
60076;SDS011;45950;45.208;20.374;2023-09-30T00:55:49;18.30;;;11.60;;
60076;SDS011;45950;45.208;20.374;2023-09-30T00:58:16;18.25;;;11.15;;
60076;SDS011;45950;45.208;20.374;2023-09-30T01:00:43;22.52;;;11.40;;
60076;SDS011;45950;45.208;20.374;2023-09-30T01:03:10;18.23;;;11.85;;
60076;SDS011;45950;45.208;20.374;2023-09-30T01:05:38;19.40;;;11.35;;
60076;SDS011;45950;45.208;20.374;2023-09-30T01:08:05;16.60;;;12.32;;
60076;SDS011;45950;45.208;20.374;2023-09-30T01:10:31;15.48;;;11.77;;
60076;SDS011;45950;45.208;20.374;2023-09-30T01:12:58;23.05;;;14.88;;
60076;SDS011;45950;45.208;20.374;2023-09-30T01:15:25;14.60;;;10.85;;
60076;SDS011;45950;45.208;20.374;2023-09-30T01:17:51;16.33;;;10.02;;
60076;SDS011;45950;45.208;20.374;2023-09-30T01:20:18;14.02;;;10.60;;
60076;SDS011;45950;45.208;20.374;2023-09-30T01:22:48;11.38;;;8.45;;
60076;SDS011;45950;45.208;20.374;2023-09-30T01:25:15;15.40;;;9.23;;
60076;SDS011;45950;45.208;20.374;2023-09-30T01:27:42;12.02;;;9.32;;
60076;SDS011;45950;45.208;20.374;2023-09-30T01:30:09;12.48;;;8.73;;
60076;SDS011;45950;45.208;20.374;2023-09-30T01:32:37;15.13;;;10.23;;
60076;SDS011;45950;45.208;20.374;2023-09-30T01:35:04;14.65;;;10.98;;
60076;SDS011;45950;45.208;20.374;2023-09-30T01:37:31;14.75;;;9.10;;
60076;SDS011;45950;45.208;20.374;2023-09-30T01:39:58;15.88;;;10.68;;
60076;SDS011;45950;45.208;20.374;2023-09-30T01:42:25;14.77;;;10.90;;
60076;SDS011;45950;45.208;20.374;2023-09-30T01:44:52;22.17;;;13.50;;
60076;SDS011;45950;45.208;20.374;2023-09-30T01:47:19;21.58;;;12.23;;
60076;SDS011;45950;45.208;20.374;2023-09-30T01:49:46;17.13;;;12.02;;
60076;SDS011;45950;45.208;20.374;2023-09-30T01:52:12;16.45;;;12.32;;
60076;SDS011;45950;45.208;20.374;2023-09-30T01:54:39;19.05;;;14.18;;
60076;SDS011;45950;45.208;20.374;2023-09-30T01:57:07;23.70;;;16.85;;
60076;SDS011;45950;45.208;20.374;2023-09-30T01:59:35;26.63;;;16.17;;
60076;SDS011;45950;45.208;20.374;2023-09-30T02:02:01;23.33;;;13.73;;
60076;SDS011;45950;45.208;20.374;2023-09-30T02:04:28;19.95;;;13.32;;
60076;SDS011;45950;45.208;20.374;2023-09-30T02:06:55;20.27;;;14.57;;
60076;SDS011;45950;45.208;20.374;2023-09-30T02:09:21;20.50;;;12.98;;
60076;SDS011;45950;45.208;20.374;2023-09-30T02:11:48;23.50;;;15.52;;
60076;SDS011;45950;45.208;20.374;2023-09-30T02:14:16;19.20;;;12.68;;
60076;SDS011;45950;45.208;20.374;2023-09-30T02:16:42;18.60;;;12.85;;
60076;SDS011;45950;45.208;20.374;2023-09-30T02:19:09;18.20;;;12.93;;
60076;SDS011;45950;45.208;20.374;2023-09-30T02:21:36;18.80;;;13.23;;
60076;SDS011;45950;45.208;20.374;2023-09-30T02:24:03;23.00;;;13.70;;
60076;SDS011;45950;45.208;20.374;2023-09-30T02:26:31;20.98;;;15.60;;
60076;SDS011;45950;45.208;20.374;2023-09-30T02:28:58;20.45;;;12.88;;
60076;SDS011;45950;45.208;20.374;2023-09-30T02:31:26;22.70;;;15.90;;
60076;SDS011;45950;45.208;20.374;2023-09-30T02:33:52;19.50;;;15.20;;
60076;SDS011;45950;45.208;20.374;2023-09-30T02:36:19;21.70;;;13.68;;
60076;SDS011;45950;45.208;20.374;2023-09-30T02:38:46;20.20;;;13.82;;
60076;SDS011;45950;45.208;20.374;2023-09-30T02:41:14;18.80;;;13.05;;
60076;SDS011;45950;45.208;20.374;2023-09-30T02:43:41;19.48;;;13.27;;
60076;SDS011;45950;45.208;20.374;2023-09-30T02:46:08;16.30;;;12.30;;
60076;SDS011;45950;45.208;20.374;2023-09-30T02:48:36;15.00;;;11.20;;
60076;SDS011;45950;45.208;20.374;2023-09-30T02:51:03;16.77;;;11.63;;
60076;SDS011;45950;45.208;20.374;2023-09-30T02:53:29;18.23;;;11.50;;
60076;SDS011;45950;45.208;20.374;2023-09-30T02:55:56;16.38;;;11.82;;
60076;SDS011;45950;45.208;20.374;2023-09-30T02:58:25;15.43;;;11.10;;
60076;SDS011;45950;45.208;20.374;2023-09-30T03:00:51;19.13;;;12.18;;
60076;SDS011;45950;45.208;20.374;2023-09-30T03:03:19;18.60;;;11.32;;
60076;SDS011;45950;45.208;20.374;2023-09-30T03:05:48;16.33;;;11.40;;
60076;SDS011;45950;45.208;20.374;2023-09-30T03:11:01;15.57;;;11.95;;
60076;SDS011;45950;45.208;20.374;2023-09-30T03:13:29;15.90;;;10.85;;
60076;SDS011;45950;45.208;20.374;2023-09-30T03:16:00;14.70;;;11.13;;
60076;SDS011;45950;45.208;20.374;2023-09-30T03:18:28;17.60;;;11.52;;
60076;SDS011;45950;45.208;20.374;2023-09-30T03:20:59;14.35;;;11.05;;
60076;SDS011;45950;45.208;20.374;2023-09-30T03:23:28;13.55;;;11.40;;
60076;SDS011;45950;45.208;20.374;2023-09-30T03:25:56;16.75;;;11.32;;
60076;SDS011;45950;45.208;20.374;2023-09-30T03:28:23;18.27;;;11.25;;
60076;SDS011;45950;45.208;20.374;2023-09-30T03:30:49;18.50;;;11.95;;
60076;SDS011;45950;45.208;20.374;2023-09-30T03:33:16;17.17;;;11.93;;
60076;SDS011;45950;45.208;20.374;2023-09-30T03:35:43;14.60;;;11.27;;
60076;SDS011;45950;45.208;20.374;2023-09-30T03:38:11;14.45;;;10.77;;
60076;SDS011;45950;45.208;20.374;2023-09-30T03:40:38;20.55;;;12.25;;
60076;SDS011;45950;45.208;20.374;2023-09-30T03:43:05;12.50;;;10.50;;
60076;SDS011;45950;45.208;20.374;2023-09-30T03:45:31;15.82;;;11.13;;
60076;SDS011;45950;45.208;20.374;2023-09-30T03:47:58;15.40;;;11.23;;
60076;SDS011;45950;45.208;20.374;2023-09-30T03:53:22;18.30;;;11.45;;
60076;SDS011;45950;45.208;20.374;2023-09-30T03:55:51;27.58;;;12.75;;
60076;SDS011;45950;45.208;20.374;2023-09-30T04:01:24;21.42;;;13.35;;
60076;SDS011;45950;45.208;20.374;2023-09-30T04:03:52;18.13;;;11.80;;
60076;SDS011;45950;45.208;20.374;2023-09-30T04:06:19;15.70;;;10.95;;
60076;SDS011;45950;45.208;20.374;2023-09-30T04:11:37;18.20;;;12.98;;
60076;SDS011;45950;45.208;20.374;2023-09-30T04:14:04;15.40;;;10.23;;
60076;SDS011;45950;45.208;20.374;2023-09-30T04:16:31;15.57;;;11.45;;
60076;SDS011;45950;45.208;20.374;2023-09-30T04:18:58;15.75;;;11.50;;
60076;SDS011;45950;45.208;20.374;2023-09-30T04:21:25;21.73;;;10.98;;
60076;SDS011;45950;45.208;20.374;2023-09-30T04:23:53;14.98;;;11.15;;
60076;SDS011;45950;45.208;20.374;2023-09-30T04:26:21;13.32;;;9.77;;
60076;SDS011;45950;45.208;20.374;2023-09-30T04:28:49;16.13;;;11.88;;
60076;SDS011;45950;45.208;20.374;2023-09-30T04:31:16;14.77;;;9.43;;
60076;SDS011;45950;45.208;20.374;2023-09-30T04:33:43;15.43;;;10.68;;
60076;SDS011;45950;45.208;20.374;2023-09-30T04:36:10;15.95;;;11.18;;
60076;SDS011;45950;45.208;20.374;2023-09-30T04:38:37;16.40;;;12.52;;
60076;SDS011;45950;45.208;20.374;2023-09-30T04:41:04;18.83;;;12.20;;
60076;SDS011;45950;45.208;20.374;2023-09-30T04:43:32;13.73;;;9.98;;
60076;SDS011;45950;45.208;20.374;2023-09-30T04:46:00;16.50;;;11.85;;
60076;SDS011;45950;45.208;20.374;2023-09-30T04:48:27;17.05;;;12.13;;
60076;SDS011;45950;45.208;20.374;2023-09-30T04:51:06;22.00;;;14.50;;
60076;SDS011;45950;45.208;20.374;2023-09-30T04:53:33;17.08;;;14.55;;
60076;SDS011;45950;45.208;20.374;2023-09-30T04:56:00;22.80;;;14.10;;
60076;SDS011;45950;45.208;20.374;2023-09-30T04:58:26;24.45;;;16.70;;
60076;SDS011;45950;45.208;20.374;2023-09-30T05:00:54;25.63;;;20.17;;
60076;SDS011;45950;45.208;20.374;2023-09-30T05:03:22;19.95;;;14.75;;
60076;SDS011;45950;45.208;20.374;2023-09-30T05:05:50;17.02;;;11.50;;
60076;SDS011;45950;45.208;20.374;2023-09-30T05:08:18;18.33;;;12.57;;
60076;SDS011;45950;45.208;20.374;2023-09-30T05:10:45;18.25;;;13.50;;
60076;SDS011;45950;45.208;20.374;2023-09-30T05:13:11;17.67;;;14.25;;
60076;SDS011;45950;45.208;20.374;2023-09-30T05:15:39;22.38;;;16.13;;
60076;SDS011;45950;45.208;20.374;2023-09-30T05:18:07;15.38;;;11.10;;
60076;SDS011;45950;45.208;20.374;2023-09-30T05:20:35;21.15;;;14.77;;
60076;SDS011;45950;45.208;20.374;2023-09-30T05:23:04;19.00;;;10.75;;
60076;SDS011;45950;45.208;20.374;2023-09-30T05:25:32;15.10;;;11.07;;
60076;SDS011;45950;45.208;20.374;2023-09-30T05:27:58;14.02;;;10.38;;
60076;SDS011;45950;45.208;20.374;2023-09-30T05:30:25;18.60;;;13.43;;
60076;SDS011;45950;45.208;20.374;2023-09-30T05:33:07;15.23;;;10.55;;
60076;SDS011;45950;45.208;20.374;2023-09-30T05:35:39;14.55;;;11.07;;
60076;SDS011;45950;45.208;20.374;2023-09-30T05:38:06;16.73;;;13.43;;
60076;SDS011;45950;45.208;20.374;2023-09-30T05:40:33;18.70;;;13.63;;
60076;SDS011;45950;45.208;20.374;2023-09-30T05:42:59;15.55;;;11.35;;
60076;SDS011;45950;45.208;20.374;2023-09-30T05:45:26;16.15;;;12.07;;
60076;SDS011;45950;45.208;20.374;2023-09-30T05:47:53;12.80;;;11.25;;
60076;SDS011;45950;45.208;20.374;2023-09-30T05:53:23;17.77;;;11.85;;
60076;SDS011;45950;45.208;20.374;2023-09-30T05:55:50;20.00;;;13.70;;
60076;SDS011;45950;45.208;20.374;2023-09-30T05:58:22;18.95;;;12.50;;
60076;SDS011;45950;45.208;20.374;2023-09-30T06:00:49;16.88;;;13.40;;
60076;SDS011;45950;45.208;20.374;2023-09-30T06:03:16;17.23;;;13.10;;
60076;SDS011;45950;45.208;20.374;2023-09-30T06:05:42;18.85;;;13.07;;
60076;SDS011;45950;45.208;20.374;2023-09-30T06:08:09;15.52;;;12.20;;
60076;SDS011;45950;45.208;20.374;2023-09-30T06:10:40;19.02;;;12.38;;
60076;SDS011;45950;45.208;20.374;2023-09-30T06:13:09;24.77;;;16.88;;
60076;SDS011;45950;45.208;20.374;2023-09-30T06:15:36;25.08;;;17.15;;
60076;SDS011;45950;45.208;20.374;2023-09-30T06:21:05;22.38;;;17.92;;
60076;SDS011;45950;45.208;20.374;2023-09-30T06:23:31;24.50;;;14.90;;
60076;SDS011;45950;45.208;20.374;2023-09-30T06:26:00;21.40;;;13.98;;
60076;SDS011;45950;45.208;20.374;2023-09-30T06:28:28;24.55;;;16.42;;
60076;SDS011;45950;45.208;20.374;2023-09-30T06:30:56;22.90;;;18.52;;
60076;SDS011;45950;45.208;20.374;2023-09-30T06:33:23;21.02;;;14.93;;
60076;SDS011;45950;45.208;20.374;2023-09-30T06:35:50;16.23;;;13.75;;
60076;SDS011;45950;45.208;20.374;2023-09-30T06:38:17;13.90;;;11.65;;
60076;SDS011;45950;45.208;20.374;2023-09-30T06:43:46;18.52;;;15.18;;
60076;SDS011;45950;45.208;20.374;2023-09-30T06:46:14;17.52;;;13.25;;
60076;SDS011;45950;45.208;20.374;2023-09-30T06:48:41;17.67;;;14.68;;
60076;SDS011;45950;45.208;20.374;2023-09-30T06:51:12;17.92;;;13.13;;
60076;SDS011;45950;45.208;20.374;2023-09-30T06:53:40;20.75;;;13.23;;
60076;SDS011;45950;45.208;20.374;2023-09-30T06:56:06;23.58;;;13.23;;
60076;SDS011;45950;45.208;20.374;2023-09-30T06:58:33;19.70;;;13.27;;
60076;SDS011;45950;45.208;20.374;2023-09-30T07:01:01;16.67;;;12.75;;
60076;SDS011;45950;45.208;20.374;2023-09-30T07:03:28;15.77;;;11.43;;
60076;SDS011;45950;45.208;20.374;2023-09-30T07:05:55;12.82;;;9.60;;
60076;SDS011;45950;45.208;20.374;2023-09-30T07:08:25;13.80;;;10.75;;
60076;SDS011;45950;45.208;20.374;2023-09-30T07:10:52;13.23;;;10.23;;
60076;SDS011;45950;45.208;20.374;2023-09-30T07:13:30;14.95;;;11.55;;
60076;SDS011;45950;45.208;20.374;2023-09-30T07:15:57;11.05;;;9.25;;
60076;SDS011;45950;45.208;20.374;2023-09-30T07:18:25;18.48;;;13.48;;
60076;SDS011;45950;45.208;20.374;2023-09-30T07:21:02;16.15;;;13.23;;
60076;SDS011;45950;45.208;20.374;2023-09-30T07:23:29;14.32;;;10.95;;
60076;SDS011;45950;45.208;20.374;2023-09-30T07:25:56;17.27;;;13.13;;
60076;SDS011;45950;45.208;20.374;2023-09-30T07:28:23;14.55;;;11.88;;
60076;SDS011;45950;45.208;20.374;2023-09-30T07:30:49;14.52;;;12.20;;
60076;SDS011;45950;45.208;20.374;2023-09-30T07:33:16;16.38;;;12.00;;
60076;SDS011;45950;45.208;20.374;2023-09-30T07:35:51;15.77;;;11.98;;
60076;SDS011;45950;45.208;20.374;2023-09-30T07:38:18;15.90;;;12.02;;
60076;SDS011;45950;45.208;20.374;2023-09-30T07:40:44;16.13;;;12.50;;
60076;SDS011;45950;45.208;20.374;2023-09-30T07:43:11;12.85;;;11.23;;
60076;SDS011;45950;45.208;20.374;2023-09-30T07:45:38;15.02;;;11.68;;
60076;SDS011;45950;45.208;20.374;2023-09-30T07:48:06;12.30;;;10.40;;
60076;SDS011;45950;45.208;20.374;2023-09-30T07:50:34;11.93;;;8.57;;
60076;SDS011;45950;45.208;20.374;2023-09-30T07:53:03;15.50;;;11.07;;
60076;SDS011;45950;45.208;20.374;2023-09-30T07:55:29;13.55;;;10.73;;
60076;SDS011;45950;45.208;20.374;2023-09-30T07:57:58;14.63;;;10.65;;
60076;SDS011;45950;45.208;20.374;2023-09-30T08:00:26;17.60;;;11.15;;
60076;SDS011;45950;45.208;20.374;2023-09-30T08:02:52;11.55;;;10.00;;
60076;SDS011;45950;45.208;20.374;2023-09-30T08:05:27;12.45;;;10.35;;
60076;SDS011;45950;45.208;20.374;2023-09-30T08:07:54;10.50;;;8.68;;
60076;SDS011;45950;45.208;20.374;2023-09-30T08:10:22;15.88;;;8.30;;
60076;SDS011;45950;45.208;20.374;2023-09-30T08:12:48;10.02;;;7.47;;
60076;SDS011;45950;45.208;20.374;2023-09-30T08:15:15;9.98;;;6.32;;
60076;SDS011;45950;45.208;20.374;2023-09-30T08:17:42;9.57;;;7.60;;
60076;SDS011;45950;45.208;20.374;2023-09-30T08:20:08;9.73;;;6.82;;
60076;SDS011;45950;45.208;20.374;2023-09-30T08:22:36;9.38;;;5.65;;
60076;SDS011;45950;45.208;20.374;2023-09-30T08:25:03;9.63;;;6.60;;
60076;SDS011;45950;45.208;20.374;2023-09-30T08:27:32;9.75;;;6.93;;
60076;SDS011;45950;45.208;20.374;2023-09-30T08:30:00;8.55;;;6.38;;
60076;SDS011;45950;45.208;20.374;2023-09-30T08:32:31;10.40;;;5.22;;
60076;SDS011;45950;45.208;20.374;2023-09-30T08:34:58;8.88;;;6.65;;
60076;SDS011;45950;45.208;20.374;2023-09-30T08:37:24;7.90;;;5.72;;
60076;SDS011;45950;45.208;20.374;2023-09-30T08:39:51;7.60;;;5.03;;
60076;SDS011;45950;45.208;20.374;2023-09-30T08:42:18;6.68;;;5.22;;
60076;SDS011;45950;45.208;20.374;2023-09-30T08:44:46;7.38;;;5.10;;
60076;SDS011;45950;45.208;20.374;2023-09-30T08:47:14;9.90;;;5.20;;
60076;SDS011;45950;45.208;20.374;2023-09-30T08:49:41;8.60;;;4.95;;
60076;SDS011;45950;45.208;20.374;2023-09-30T08:52:09;7.45;;;5.72;;
60076;SDS011;45950;45.208;20.374;2023-09-30T08:54:37;8.45;;;6.13;;
60076;SDS011;45950;45.208;20.374;2023-09-30T08:57:04;8.02;;;5.93;;
60076;SDS011;45950;45.208;20.374;2023-09-30T08:59:31;9.52;;;6.07;;
60076;SDS011;45950;45.208;20.374;2023-09-30T09:01:59;7.88;;;5.50;;
60076;SDS011;45950;45.208;20.374;2023-09-30T09:04:26;12.38;;;6.28;;
60076;SDS011;45950;45.208;20.374;2023-09-30T09:06:53;8.10;;;6.10;;
60076;SDS011;45950;45.208;20.374;2023-09-30T09:09:21;11.00;;;6.55;;
60076;SDS011;45950;45.208;20.374;2023-09-30T09:11:50;8.90;;;5.88;;
60076;SDS011;45950;45.208;20.374;2023-09-30T09:14:17;10.57;;;6.07;;
60076;SDS011;45950;45.208;20.374;2023-09-30T09:16:53;9.68;;;5.40;;
60076;SDS011;45950;45.208;20.374;2023-09-30T09:19:21;9.85;;;4.90;;
60076;SDS011;45950;45.208;20.374;2023-09-30T09:21:54;9.27;;;5.47;;
60076;SDS011;45950;45.208;20.374;2023-09-30T09:24:28;6.72;;;4.68;;
60076;SDS011;45950;45.208;20.374;2023-09-30T09:27:03;7.47;;;4.90;;
60076;SDS011;45950;45.208;20.374;2023-09-30T09:29:30;9.13;;;5.40;;
60076;SDS011;45950;45.208;20.374;2023-09-30T09:32:06;7.97;;;4.88;;
60076;SDS011;45950;45.208;20.374;2023-09-30T09:34:34;7.15;;;4.95;;
60076;SDS011;45950;45.208;20.374;2023-09-30T09:37:01;6.80;;;4.85;;
60076;SDS011;45950;45.208;20.374;2023-09-30T09:39:38;7.22;;;4.40;;
60076;SDS011;45950;45.208;20.374;2023-09-30T09:42:05;7.43;;;5.60;;
60076;SDS011;45950;45.208;20.374;2023-09-30T09:44:31;6.47;;;4.47;;
60076;SDS011;45950;45.208;20.374;2023-09-30T09:46:59;5.68;;;4.50;;
60076;SDS011;45950;45.208;20.374;2023-09-30T09:49:28;6.80;;;4.78;;
60076;SDS011;45950;45.208;20.374;2023-09-30T09:51:57;5.85;;;4.40;;
60076;SDS011;45950;45.208;20.374;2023-09-30T09:54:25;7.50;;;4.93;;
60076;SDS011;45950;45.208;20.374;2023-09-30T09:56:52;7.00;;;4.55;;
60076;SDS011;45950;45.208;20.374;2023-09-30T09:59:26;7.75;;;5.07;;
60076;SDS011;45950;45.208;20.374;2023-09-30T10:01:54;8.80;;;5.50;;
60076;SDS011;45950;45.208;20.374;2023-09-30T10:04:21;9.02;;;5.55;;
60076;SDS011;45950;45.208;20.374;2023-09-30T10:06:48;7.20;;;5.03;;
60076;SDS011;45950;45.208;20.374;2023-09-30T10:09:19;8.88;;;5.38;;
60076;SDS011;45950;45.208;20.374;2023-09-30T10:11:46;6.70;;;5.45;;
60076;SDS011;45950;45.208;20.374;2023-09-30T10:14:22;10.43;;;5.78;;
60076;SDS011;45950;45.208;20.374;2023-09-30T10:16:55;9.02;;;4.85;;
60076;SDS011;45950;45.208;20.374;2023-09-30T10:19:22;9.57;;;5.30;;
60076;SDS011;45950;45.208;20.374;2023-09-30T10:24:36;7.38;;;5.63;;
60076;SDS011;45950;45.208;20.374;2023-09-30T10:29:47;8.63;;;5.05;;
60076;SDS011;45950;45.208;20.374;2023-09-30T10:32:14;7.32;;;4.32;;
60076;SDS011;45950;45.208;20.374;2023-09-30T10:34:46;6.78;;;4.20;;
60076;SDS011;45950;45.208;20.374;2023-09-30T10:37:25;7.28;;;4.55;;
60076;SDS011;45950;45.208;20.374;2023-09-30T10:39:53;5.68;;;4.45;;
60076;SDS011;45950;45.208;20.374;2023-09-30T10:45:06;7.28;;;4.25;;
60076;SDS011;45950;45.208;20.374;2023-09-30T10:47:48;7.22;;;4.93;;
60076;SDS011;45950;45.208;20.374;2023-09-30T10:53:08;7.97;;;5.22;;
60076;SDS011;45950;45.208;20.374;2023-09-30T10:55:37;7.13;;;4.53;;
60076;SDS011;45950;45.208;20.374;2023-09-30T10:58:03;6.43;;;4.47;;
60076;SDS011;45950;45.208;20.374;2023-09-30T11:00:30;6.45;;;5.13;;
60076;SDS011;45950;45.208;20.374;2023-09-30T11:02:57;9.00;;;4.93;;
60076;SDS011;45950;45.208;20.374;2023-09-30T11:05:32;5.05;;;4.00;;
60076;SDS011;45950;45.208;20.374;2023-09-30T11:08:00;10.00;;;5.25;;
60076;SDS011;45950;45.208;20.374;2023-09-30T11:10:28;8.25;;;4.93;;
60076;SDS011;45950;45.208;20.374;2023-09-30T11:13:06;6.70;;;4.50;;
60076;SDS011;45950;45.208;20.374;2023-09-30T11:15:33;8.10;;;3.90;;
60076;SDS011;45950;45.208;20.374;2023-09-30T11:18:12;5.85;;;4.63;;
60076;SDS011;45950;45.208;20.374;2023-09-30T11:20:40;5.47;;;4.35;;
60076;SDS011;45950;45.208;20.374;2023-09-30T11:23:06;9.70;;;4.68;;
60076;SDS011;45950;45.208;20.374;2023-09-30T11:25:34;8.25;;;5.50;;
60076;SDS011;45950;45.208;20.374;2023-09-30T11:28:21;10.82;;;4.50;;
60076;SDS011;45950;45.208;20.374;2023-09-30T11:30:54;6.32;;;4.15;;
60076;SDS011;45950;45.208;20.374;2023-09-30T11:33:21;5.70;;;3.75;;
60076;SDS011;45950;45.208;20.374;2023-09-30T11:35:57;6.15;;;4.72;;
60076;SDS011;45950;45.208;20.374;2023-09-30T11:38:26;6.85;;;3.97;;
60076;SDS011;45950;45.208;20.374;2023-09-30T11:41:02;6.65;;;3.38;;
60076;SDS011;45950;45.208;20.374;2023-09-30T11:43:30;8.90;;;3.65;;
60076;SDS011;45950;45.208;20.374;2023-09-30T11:46:04;4.97;;;4.15;;
60076;SDS011;45950;45.208;20.374;2023-09-30T11:48:33;5.05;;;3.92;;
60076;SDS011;45950;45.208;20.374;2023-09-30T11:51:00;8.05;;;4.55;;
60076;SDS011;45950;45.208;20.374;2023-09-30T11:53:28;5.50;;;3.60;;
60076;SDS011;45950;45.208;20.374;2023-09-30T11:55:55;6.40;;;3.35;;
60076;SDS011;45950;45.208;20.374;2023-09-30T11:58:26;6.90;;;3.38;;
60076;SDS011;45950;45.208;20.374;2023-09-30T12:00:57;9.20;;;5.05;;
60076;SDS011;45950;45.208;20.374;2023-09-30T12:03:24;9.75;;;4.03;;
60076;SDS011;45950;45.208;20.374;2023-09-30T12:05:52;10.68;;;4.97;;
60076;SDS011;45950;45.208;20.374;2023-09-30T12:08:20;11.00;;;3.80;;
60076;SDS011;45950;45.208;20.374;2023-09-30T12:10:47;5.10;;;3.33;;
60076;SDS011;45950;45.208;20.374;2023-09-30T12:13:32;5.95;;;3.90;;
60076;SDS011;45950;45.208;20.374;2023-09-30T12:16:00;4.68;;;3.47;;
60076;SDS011;45950;45.208;20.374;2023-09-30T12:18:27;5.30;;;3.90;;
60076;SDS011;45950;45.208;20.374;2023-09-30T12:20:54;7.57;;;3.50;;
60076;SDS011;45950;45.208;20.374;2023-09-30T12:23:20;3.78;;;2.97;;
60076;SDS011;45950;45.208;20.374;2023-09-30T12:25:47;4.50;;;2.90;;
60076;SDS011;45950;45.208;20.374;2023-09-30T12:28:14;7.05;;;3.30;;
60076;SDS011;45950;45.208;20.374;2023-09-30T12:30:40;6.28;;;4.45;;
60076;SDS011;45950;45.208;20.374;2023-09-30T12:33:09;6.82;;;3.60;;
60076;SDS011;45950;45.208;20.374;2023-09-30T12:35:36;7.55;;;3.80;;
60076;SDS011;45950;45.208;20.374;2023-09-30T12:38:03;7.05;;;4.20;;
60076;SDS011;45950;45.208;20.374;2023-09-30T12:40:29;4.57;;;3.42;;
60076;SDS011;45950;45.208;20.374;2023-09-30T12:45:58;5.25;;;4.35;;
60076;SDS011;45950;45.208;20.374;2023-09-30T12:48:27;5.90;;;4.13;;
60076;SDS011;45950;45.208;20.374;2023-09-30T12:50:53;5.60;;;3.65;;
60076;SDS011;45950;45.208;20.374;2023-09-30T12:53:20;9.80;;;3.95;;
60076;SDS011;45950;45.208;20.374;2023-09-30T12:55:46;4.88;;;3.38;;
60076;SDS011;45950;45.208;20.374;2023-09-30T12:58:29;5.78;;;3.47;;
60076;SDS011;45950;45.208;20.374;2023-09-30T13:00:56;6.00;;;4.53;;
60076;SDS011;45950;45.208;20.374;2023-09-30T13:03:23;6.40;;;4.18;;
60076;SDS011;45950;45.208;20.374;2023-09-30T13:05:51;5.10;;;3.50;;
60076;SDS011;45950;45.208;20.374;2023-09-30T13:08:19;5.35;;;3.42;;
60076;SDS011;45950;45.208;20.374;2023-09-30T13:10:46;5.38;;;3.70;;
60076;SDS011;45950;45.208;20.374;2023-09-30T13:13:15;7.13;;;3.33;;
60076;SDS011;45950;45.208;20.374;2023-09-30T13:15:42;5.32;;;3.70;;
60076;SDS011;45950;45.208;20.374;2023-09-30T13:18:08;7.85;;;4.03;;
60076;SDS011;45950;45.208;20.374;2023-09-30T13:20:35;5.82;;;4.05;;
60076;SDS011;45950;45.208;20.374;2023-09-30T13:23:03;6.28;;;3.20;;
60076;SDS011;45950;45.208;20.374;2023-09-30T13:25:30;8.40;;;4.38;;
60076;SDS011;45950;45.208;20.374;2023-09-30T13:27:57;6.05;;;4.10;;
60076;SDS011;45950;45.208;20.374;2023-09-30T13:30:24;8.38;;;3.78;;
60076;SDS011;45950;45.208;20.374;2023-09-30T13:35:45;9.68;;;4.20;;
60076;SDS011;45950;45.208;20.374;2023-09-30T13:38:13;7.97;;;4.05;;
60076;SDS011;45950;45.208;20.374;2023-09-30T13:40:53;7.75;;;3.75;;
60076;SDS011;45950;45.208;20.374;2023-09-30T13:43:20;5.53;;;3.28;;
60076;SDS011;45950;45.208;20.374;2023-09-30T13:45:46;4.82;;;3.25;;
60076;SDS011;45950;45.208;20.374;2023-09-30T13:48:13;4.45;;;3.33;;
60076;SDS011;45950;45.208;20.374;2023-09-30T13:50:42;6.90;;;3.97;;
60076;SDS011;45950;45.208;20.374;2023-09-30T13:53:09;6.75;;;4.03;;
60076;SDS011;45950;45.208;20.374;2023-09-30T13:55:38;7.38;;;3.70;;
60076;SDS011;45950;45.208;20.374;2023-09-30T13:58:06;4.80;;;3.70;;
60076;SDS011;45950;45.208;20.374;2023-09-30T14:00:33;6.45;;;3.60;;
60076;SDS011;45950;45.208;20.374;2023-09-30T14:03:00;8.68;;;3.83;;
60076;SDS011;45950;45.208;20.374;2023-09-30T14:05:35;5.85;;;3.47;;
60076;SDS011;45950;45.208;20.374;2023-09-30T14:08:04;6.15;;;4.00;;
60076;SDS011;45950;45.208;20.374;2023-09-30T14:10:32;5.15;;;3.45;;
60076;SDS011;45950;45.208;20.374;2023-09-30T14:13:00;4.60;;;3.58;;
60076;SDS011;45950;45.208;20.374;2023-09-30T14:15:28;4.95;;;3.15;;
60076;SDS011;45950;45.208;20.374;2023-09-30T14:17:56;6.40;;;3.20;;
60076;SDS011;45950;45.208;20.374;2023-09-30T14:20:23;5.15;;;3.30;;
60076;SDS011;45950;45.208;20.374;2023-09-30T14:22:49;6.25;;;3.35;;
60076;SDS011;45950;45.208;20.374;2023-09-30T14:25:16;4.70;;;3.00;;
60076;SDS011;45950;45.208;20.374;2023-09-30T14:27:50;4.22;;;2.92;;
60076;SDS011;45950;45.208;20.374;2023-09-30T14:30:18;4.65;;;2.65;;
60076;SDS011;45950;45.208;20.374;2023-09-30T14:32:46;4.40;;;3.10;;
60076;SDS011;45950;45.208;20.374;2023-09-30T14:35:24;5.97;;;3.97;;
60076;SDS011;45950;45.208;20.374;2023-09-30T14:37:51;7.53;;;3.38;;
60076;SDS011;45950;45.208;20.374;2023-09-30T14:40:19;5.72;;;3.38;;
60076;SDS011;45950;45.208;20.374;2023-09-30T14:42:46;10.43;;;4.00;;
60076;SDS011;45950;45.208;20.374;2023-09-30T14:45:13;4.40;;;2.97;;
60076;SDS011;45950;45.208;20.374;2023-09-30T14:47:41;5.10;;;3.42;;
60076;SDS011;45950;45.208;20.374;2023-09-30T14:50:08;4.60;;;3.22;;
60076;SDS011;45950;45.208;20.374;2023-09-30T14:52:35;6.53;;;4.25;;
60076;SDS011;45950;45.208;20.374;2023-09-30T14:55:02;5.35;;;3.88;;
60076;SDS011;45950;45.208;20.374;2023-09-30T14:57:31;6.95;;;4.43;;
60076;SDS011;45950;45.208;20.374;2023-09-30T14:59:58;6.13;;;3.63;;
60076;SDS011;45950;45.208;20.374;2023-09-30T15:02:25;8.45;;;4.22;;
60076;SDS011;45950;45.208;20.374;2023-09-30T15:04:54;8.35;;;4.25;;